sensor_id;sensor_type;location;lat;lon;timestamp;P1;durP1;ratioP1;P2;durP2;ratioP2
46318;SDS011;32042;50.916;2.926;2022-12-19T00:00:03;13.23;;;9.40;;
46318;SDS011;32042;50.916;2.926;2022-12-19T00:02:29;13.47;;;9.27;;
46318;SDS011;32042;50.916;2.926;2022-12-19T00:04:57;14.17;;;10.40;;
46318;SDS011;32042;50.916;2.926;2022-12-19T00:07:23;13.17;;;9.83;;
46318;SDS011;32042;50.916;2.926;2022-12-19T00:09:49;15.47;;;9.90;;
46318;SDS011;32042;50.916;2.926;2022-12-19T00:12:15;17.03;;;9.67;;
46318;SDS011;32042;50.916;2.926;2022-12-19T00:14:41;15.23;;;10.27;;
46318;SDS011;32042;50.916;2.926;2022-12-19T00:17:07;13.13;;;10.33;;
46318;SDS011;32042;50.916;2.926;2022-12-19T00:19:33;11.23;;;8.83;;
46318;SDS011;32042;50.916;2.926;2022-12-19T00:21:59;16.17;;;10.73;;
46318;SDS011;32042;50.916;2.926;2022-12-19T00:24:25;16.53;;;9.57;;
46318;SDS011;32042;50.916;2.926;2022-12-19T00:26:51;12.50;;;10.20;;
46318;SDS011;32042;50.916;2.926;2022-12-19T00:29:17;13.60;;;10.60;;
46318;SDS011;32042;50.916;2.926;2022-12-19T00:31:43;12.90;;;9.83;;
46318;SDS011;32042;50.916;2.926;2022-12-19T00:34:09;14.60;;;9.73;;
46318;SDS011;32042;50.916;2.926;2022-12-19T00:36:35;14.33;;;10.50;;
46318;SDS011;32042;50.916;2.926;2022-12-19T00:39:02;13.87;;;9.43;;
46318;SDS011;32042;50.916;2.926;2022-12-19T00:41:33;13.37;;;9.87;;
46318;SDS011;32042;50.916;2.926;2022-12-19T00:44:00;13.10;;;9.70;;
46318;SDS011;32042;50.916;2.926;2022-12-19T00:46:27;12.07;;;9.93;;
46318;SDS011;32042;50.916;2.926;2022-12-19T00:48:54;13.57;;;9.67;;
46318;SDS011;32042;50.916;2.926;2022-12-19T00:51:21;12.60;;;9.90;;
46318;SDS011;32042;50.916;2.926;2022-12-19T00:53:48;12.50;;;9.27;;
46318;SDS011;32042;50.916;2.926;2022-12-19T00:56:15;20.00;;;9.47;;
46318;SDS011;32042;50.916;2.926;2022-12-19T00:58:42;14.43;;;10.10;;
46318;SDS011;32042;50.916;2.926;2022-12-19T01:01:08;13.63;;;9.83;;
46318;SDS011;32042;50.916;2.926;2022-12-19T01:03:35;12.53;;;9.60;;
46318;SDS011;32042;50.916;2.926;2022-12-19T01:06:02;12.47;;;9.97;;
46318;SDS011;32042;50.916;2.926;2022-12-19T01:08:28;12.77;;;9.70;;
46318;SDS011;32042;50.916;2.926;2022-12-19T01:10:54;11.63;;;9.83;;
46318;SDS011;32042;50.916;2.926;2022-12-19T01:13:21;15.73;;;9.47;;
46318;SDS011;32042;50.916;2.926;2022-12-19T01:15:48;13.60;;;9.80;;
46318;SDS011;32042;50.916;2.926;2022-12-19T01:18:14;11.63;;;8.87;;
46318;SDS011;32042;50.916;2.926;2022-12-19T01:20:41;13.90;;;10.13;;
46318;SDS011;32042;50.916;2.926;2022-12-19T01:23:08;13.70;;;9.37;;
46318;SDS011;32042;50.916;2.926;2022-12-19T01:25:35;14.60;;;9.57;;
46318;SDS011;32042;50.916;2.926;2022-12-19T01:28:01;14.23;;;9.77;;
46318;SDS011;32042;50.916;2.926;2022-12-19T01:30:27;11.73;;;9.67;;
46318;SDS011;32042;50.916;2.926;2022-12-19T01:32:54;12.73;;;9.03;;
46318;SDS011;32042;50.916;2.926;2022-12-19T01:35:21;12.13;;;9.20;;
46318;SDS011;32042;50.916;2.926;2022-12-19T01:37:47;12.20;;;9.13;;
46318;SDS011;32042;50.916;2.926;2022-12-19T01:40:13;11.53;;;9.00;;
46318;SDS011;32042;50.916;2.926;2022-12-19T01:42:39;13.10;;;9.57;;
46318;SDS011;32042;50.916;2.926;2022-12-19T01:47:35;14.33;;;10.57;;
46318;SDS011;32042;50.916;2.926;2022-12-19T01:50:04;12.17;;;9.13;;
46318;SDS011;32042;50.916;2.926;2022-12-19T01:52:30;11.33;;;9.40;;
46318;SDS011;32042;50.916;2.926;2022-12-19T01:54:57;14.93;;;10.40;;
46318;SDS011;32042;50.916;2.926;2022-12-19T01:57:23;13.27;;;9.93;;
46318;SDS011;32042;50.916;2.926;2022-12-19T01:59:53;12.97;;;9.60;;
46318;SDS011;32042;50.916;2.926;2022-12-19T02:02:24;10.73;;;9.57;;
46318;SDS011;32042;50.916;2.926;2022-12-19T02:04:52;14.03;;;9.93;;
46318;SDS011;32042;50.916;2.926;2022-12-19T02:07:19;19.80;;;9.90;;
46318;SDS011;32042;50.916;2.926;2022-12-19T02:09:46;10.40;;;9.40;;
46318;SDS011;32042;50.916;2.926;2022-12-19T02:12:13;12.33;;;9.07;;
46318;SDS011;32042;50.916;2.926;2022-12-19T02:14:39;14.50;;;10.37;;
46318;SDS011;32042;50.916;2.926;2022-12-19T02:22:18;13.27;;;10.70;;
46318;SDS011;32042;50.916;2.926;2022-12-19T02:32:32;12.60;;;9.53;;
46318;SDS011;32042;50.916;2.926;2022-12-19T02:35:05;10.93;;;9.73;;
46318;SDS011;32042;50.916;2.926;2022-12-19T02:37:33;13.20;;;10.87;;
46318;SDS011;32042;50.916;2.926;2022-12-19T02:42:29;11.63;;;10.40;;
46318;SDS011;32042;50.916;2.926;2022-12-19T02:44:57;14.50;;;10.77;;
46318;SDS011;32042;50.916;2.926;2022-12-19T02:47:24;14.53;;;11.03;;
46318;SDS011;32042;50.916;2.926;2022-12-19T02:49:52;12.70;;;9.87;;
46318;SDS011;32042;50.916;2.926;2022-12-19T02:54:47;14.90;;;11.00;;
46318;SDS011;32042;50.916;2.926;2022-12-19T02:57:22;11.70;;;9.93;;
46318;SDS011;32042;50.916;2.926;2022-12-19T03:07:35;16.57;;;10.53;;
46318;SDS011;32042;50.916;2.926;2022-12-19T03:10:19;13.67;;;9.87;;
46318;SDS011;32042;50.916;2.926;2022-12-19T03:12:59;12.47;;;10.23;;
46318;SDS011;32042;50.916;2.926;2022-12-19T03:15:26;13.27;;;9.67;;
46318;SDS011;32042;50.916;2.926;2022-12-19T03:17:56;12.43;;;10.40;;
46318;SDS011;32042;50.916;2.926;2022-12-19T03:20:25;10.73;;;9.67;;
46318;SDS011;32042;50.916;2.926;2022-12-19T03:22:53;10.00;;;8.90;;
46318;SDS011;32042;50.916;2.926;2022-12-19T03:25:19;11.77;;;9.93;;
46318;SDS011;32042;50.916;2.926;2022-12-19T03:27:45;11.00;;;9.43;;
46318;SDS011;32042;50.916;2.926;2022-12-19T03:30:13;10.60;;;9.50;;
46318;SDS011;32042;50.916;2.926;2022-12-19T03:32:40;10.60;;;9.30;;
46318;SDS011;32042;50.916;2.926;2022-12-19T03:37:35;11.13;;;9.47;;
46318;SDS011;32042;50.916;2.926;2022-12-19T03:40:03;10.90;;;9.53;;
46318;SDS011;32042;50.916;2.926;2022-12-19T03:42:30;10.87;;;9.03;;
46318;SDS011;32042;50.916;2.926;2022-12-19T03:45:17;10.77;;;9.07;;
46318;SDS011;32042;50.916;2.926;2022-12-19T03:47:47;10.53;;;8.80;;
46318;SDS011;32042;50.916;2.926;2022-12-19T03:50:16;9.87;;;8.13;;
46318;SDS011;32042;50.916;2.926;2022-12-19T03:55:30;9.87;;;8.87;;
46318;SDS011;32042;50.916;2.926;2022-12-19T03:58:00;12.83;;;9.60;;
46318;SDS011;32042;50.916;2.926;2022-12-19T04:00:28;10.43;;;9.40;;
46318;SDS011;32042;50.916;2.926;2022-12-19T04:02:55;11.40;;;8.57;;
46318;SDS011;32042;50.916;2.926;2022-12-19T04:05:22;10.27;;;8.70;;
46318;SDS011;32042;50.916;2.926;2022-12-19T04:07:50;11.37;;;8.47;;
46318;SDS011;32042;50.916;2.926;2022-12-19T04:10:18;9.80;;;8.63;;
46318;SDS011;32042;50.916;2.926;2022-12-19T04:12:49;10.23;;;8.43;;
46318;SDS011;32042;50.916;2.926;2022-12-19T04:15:19;9.00;;;8.07;;
46318;SDS011;32042;50.916;2.926;2022-12-19T04:17:47;9.20;;;7.87;;
46318;SDS011;32042;50.916;2.926;2022-12-19T04:20:16;10.23;;;8.83;;
46318;SDS011;32042;50.916;2.926;2022-12-19T04:25:12;9.57;;;7.93;;
46318;SDS011;32042;50.916;2.926;2022-12-19T04:27:40;10.23;;;8.03;;
46318;SDS011;32042;50.916;2.926;2022-12-19T04:30:08;8.70;;;7.90;;
46318;SDS011;32042;50.916;2.926;2022-12-19T04:32:34;9.33;;;7.67;;
46318;SDS011;32042;50.916;2.926;2022-12-19T04:35:01;8.33;;;7.40;;
46318;SDS011;32042;50.916;2.926;2022-12-19T04:37:27;8.80;;;6.80;;
46318;SDS011;32042;50.916;2.926;2022-12-19T04:39:53;9.70;;;8.27;;
46318;SDS011;32042;50.916;2.926;2022-12-19T04:42:19;9.50;;;7.33;;
46318;SDS011;32042;50.916;2.926;2022-12-19T04:44:45;8.47;;;7.17;;
46318;SDS011;32042;50.916;2.926;2022-12-19T04:47:11;7.90;;;7.10;;
46318;SDS011;32042;50.916;2.926;2022-12-19T04:49:39;9.57;;;7.70;;
46318;SDS011;32042;50.916;2.926;2022-12-19T04:52:05;8.67;;;7.23;;
46318;SDS011;32042;50.916;2.926;2022-12-19T04:54:31;8.50;;;7.70;;
46318;SDS011;32042;50.916;2.926;2022-12-19T04:56:57;7.87;;;7.17;;
46318;SDS011;32042;50.916;2.926;2022-12-19T04:59:23;8.37;;;7.03;;
46318;SDS011;32042;50.916;2.926;2022-12-19T05:01:49;8.00;;;7.17;;
46318;SDS011;32042;50.916;2.926;2022-12-19T05:04:15;7.73;;;7.03;;
46318;SDS011;32042;50.916;2.926;2022-12-19T05:06:41;7.53;;;6.70;;
46318;SDS011;32042;50.916;2.926;2022-12-19T05:09:08;8.10;;;7.27;;
46318;SDS011;32042;50.916;2.926;2022-12-19T05:11:35;7.60;;;6.80;;
46318;SDS011;32042;50.916;2.926;2022-12-19T05:14:01;9.33;;;8.00;;
46318;SDS011;32042;50.916;2.926;2022-12-19T05:16:27;7.87;;;7.07;;
46318;SDS011;32042;50.916;2.926;2022-12-19T05:18:53;8.00;;;7.20;;
46318;SDS011;32042;50.916;2.926;2022-12-19T05:21:19;9.00;;;7.30;;
46318;SDS011;32042;50.916;2.926;2022-12-19T05:23:45;7.40;;;6.77;;
46318;SDS011;32042;50.916;2.926;2022-12-19T05:26:12;7.97;;;7.17;;
46318;SDS011;32042;50.916;2.926;2022-12-19T05:28:38;8.40;;;6.50;;
46318;SDS011;32042;50.916;2.926;2022-12-19T05:31:05;7.10;;;6.50;;
46318;SDS011;32042;50.916;2.926;2022-12-19T05:33:31;8.50;;;7.70;;
46318;SDS011;32042;50.916;2.926;2022-12-19T05:35:57;7.67;;;6.37;;
46318;SDS011;32042;50.916;2.926;2022-12-19T05:38:24;7.07;;;6.13;;
46318;SDS011;32042;50.916;2.926;2022-12-19T05:40:50;7.63;;;6.40;;
46318;SDS011;32042;50.916;2.926;2022-12-19T05:43:16;7.27;;;6.57;;
46318;SDS011;32042;50.916;2.926;2022-12-19T05:45:42;7.77;;;6.60;;
46318;SDS011;32042;50.916;2.926;2022-12-19T05:48:08;7.20;;;6.40;;
46318;SDS011;32042;50.916;2.926;2022-12-19T05:50:34;8.50;;;7.00;;
46318;SDS011;32042;50.916;2.926;2022-12-19T05:53:00;8.73;;;6.80;;
46318;SDS011;32042;50.916;2.926;2022-12-19T05:55:26;9.70;;;7.43;;
46318;SDS011;32042;50.916;2.926;2022-12-19T05:57:52;7.83;;;6.33;;
46318;SDS011;32042;50.916;2.926;2022-12-19T06:00:18;9.53;;;6.63;;
46318;SDS011;32042;50.916;2.926;2022-12-19T06:02:45;6.87;;;6.27;;
46318;SDS011;32042;50.916;2.926;2022-12-19T06:05:12;7.57;;;6.70;;
46318;SDS011;32042;50.916;2.926;2022-12-19T06:07:38;7.17;;;6.50;;
46318;SDS011;32042;50.916;2.926;2022-12-19T06:10:04;7.30;;;6.60;;
46318;SDS011;32042;50.916;2.926;2022-12-19T06:12:30;7.83;;;6.60;;
46318;SDS011;32042;50.916;2.926;2022-12-19T06:14:56;6.47;;;5.87;;
46318;SDS011;32042;50.916;2.926;2022-12-19T06:17:22;6.30;;;5.80;;
46318;SDS011;32042;50.916;2.926;2022-12-19T06:19:48;7.00;;;6.30;;
46318;SDS011;32042;50.916;2.926;2022-12-19T06:22:14;7.53;;;6.20;;
46318;SDS011;32042;50.916;2.926;2022-12-19T06:24:41;8.10;;;5.77;;
46318;SDS011;32042;50.916;2.926;2022-12-19T06:27:07;7.10;;;6.40;;
46318;SDS011;32042;50.916;2.926;2022-12-19T06:29:33;6.63;;;6.03;;
46318;SDS011;32042;50.916;2.926;2022-12-19T06:31:59;8.60;;;5.93;;
46318;SDS011;32042;50.916;2.926;2022-12-19T06:34:25;8.23;;;6.60;;
46318;SDS011;32042;50.916;2.926;2022-12-19T06:36:51;8.83;;;7.37;;
46318;SDS011;32042;50.916;2.926;2022-12-19T06:39:17;7.77;;;6.80;;
46318;SDS011;32042;50.916;2.926;2022-12-19T06:41:43;12.93;;;8.33;;
46318;SDS011;32042;50.916;2.926;2022-12-19T06:44:30;10.73;;;7.60;;
46318;SDS011;32042;50.916;2.926;2022-12-19T06:46:56;8.87;;;7.97;;
46318;SDS011;32042;50.916;2.926;2022-12-19T06:49:22;9.30;;;8.40;;
46318;SDS011;32042;50.916;2.926;2022-12-19T06:51:48;6.57;;;5.97;;
46318;SDS011;32042;50.916;2.926;2022-12-19T06:54:14;11.57;;;7.60;;
46318;SDS011;32042;50.916;2.926;2022-12-19T06:56:40;7.40;;;6.70;;
46318;SDS011;32042;50.916;2.926;2022-12-19T06:59:08;9.40;;;8.50;;
46318;SDS011;32042;50.916;2.926;2022-12-19T07:04:02;12.10;;;10.70;;
46318;SDS011;32042;50.916;2.926;2022-12-19T07:06:28;11.70;;;10.50;;
46318;SDS011;32042;50.916;2.926;2022-12-19T07:08:54;9.33;;;8.40;;
46318;SDS011;32042;50.916;2.926;2022-12-19T07:11:20;9.90;;;8.90;;
46318;SDS011;32042;50.916;2.926;2022-12-19T07:13:46;7.00;;;5.50;;
46318;SDS011;32042;50.916;2.926;2022-12-19T07:16:12;8.37;;;5.80;;
46318;SDS011;32042;50.916;2.926;2022-12-19T07:18:38;10.20;;;8.87;;
46318;SDS011;32042;50.916;2.926;2022-12-19T07:21:05;10.93;;;9.83;;
46318;SDS011;32042;50.916;2.926;2022-12-19T07:23:32;8.77;;;7.80;;
46318;SDS011;32042;50.916;2.926;2022-12-19T07:25:59;7.17;;;5.87;;
46318;SDS011;32042;50.916;2.926;2022-12-19T07:28:25;7.80;;;6.47;;
46318;SDS011;32042;50.916;2.926;2022-12-19T07:30:51;8.10;;;6.47;;
46318;SDS011;32042;50.916;2.926;2022-12-19T07:33:17;6.53;;;5.93;;
46318;SDS011;32042;50.916;2.926;2022-12-19T07:35:44;6.30;;;5.70;;
46318;SDS011;32042;50.916;2.926;2022-12-19T07:38:10;5.70;;;5.10;;
46318;SDS011;32042;50.916;2.926;2022-12-19T07:40:36;6.07;;;5.27;;
46318;SDS011;32042;50.916;2.926;2022-12-19T07:43:03;6.13;;;5.57;;
46318;SDS011;32042;50.916;2.926;2022-12-19T07:45:29;5.60;;;4.97;;
46318;SDS011;32042;50.916;2.926;2022-12-19T07:47:58;8.80;;;6.13;;
46318;SDS011;32042;50.916;2.926;2022-12-19T07:50:24;6.57;;;5.47;;
46318;SDS011;32042;50.916;2.926;2022-12-19T07:52:50;6.13;;;5.63;;
46318;SDS011;32042;50.916;2.926;2022-12-19T07:55:16;8.87;;;6.57;;
46318;SDS011;32042;50.916;2.926;2022-12-19T07:57:42;9.03;;;6.53;;
46318;SDS011;32042;50.916;2.926;2022-12-19T08:00:08;8.93;;;7.17;;
46318;SDS011;32042;50.916;2.926;2022-12-19T08:02:34;7.10;;;6.50;;
46318;SDS011;32042;50.916;2.926;2022-12-19T08:05:01;8.07;;;7.37;;
46318;SDS011;32042;50.916;2.926;2022-12-19T08:07:27;8.17;;;7.17;;
46318;SDS011;32042;50.916;2.926;2022-12-19T08:09:53;6.20;;;5.33;;
46318;SDS011;32042;50.916;2.926;2022-12-19T08:12:20;7.20;;;6.50;;
46318;SDS011;32042;50.916;2.926;2022-12-19T08:14:46;6.23;;;5.60;;
46318;SDS011;32042;50.916;2.926;2022-12-19T08:17:12;7.13;;;5.67;;
46318;SDS011;32042;50.916;2.926;2022-12-19T08:19:38;6.80;;;5.47;;
46318;SDS011;32042;50.916;2.926;2022-12-19T08:22:04;6.23;;;5.23;;
46318;SDS011;32042;50.916;2.926;2022-12-19T08:24:30;7.57;;;4.90;;
46318;SDS011;32042;50.916;2.926;2022-12-19T08:26:56;5.67;;;5.00;;
46318;SDS011;32042;50.916;2.926;2022-12-19T08:29:22;7.77;;;5.00;;
46318;SDS011;32042;50.916;2.926;2022-12-19T08:31:48;4.80;;;4.37;;
46318;SDS011;32042;50.916;2.926;2022-12-19T08:34:14;6.17;;;4.53;;
46318;SDS011;32042;50.916;2.926;2022-12-19T08:36:41;5.47;;;4.90;;
46318;SDS011;32042;50.916;2.926;2022-12-19T08:39:07;5.93;;;4.37;;
46318;SDS011;32042;50.916;2.926;2022-12-19T08:41:33;5.20;;;4.50;;
46318;SDS011;32042;50.916;2.926;2022-12-19T08:43:59;4.83;;;4.37;;
46318;SDS011;32042;50.916;2.926;2022-12-19T08:46:25;5.83;;;4.27;;
46318;SDS011;32042;50.916;2.926;2022-12-19T08:48:51;4.43;;;4.03;;
46318;SDS011;32042;50.916;2.926;2022-12-19T08:51:18;8.93;;;4.20;;
46318;SDS011;32042;50.916;2.926;2022-12-19T08:53:44;5.23;;;3.87;;
46318;SDS011;32042;50.916;2.926;2022-12-19T08:58:37;5.70;;;4.00;;
46318;SDS011;32042;50.916;2.926;2022-12-19T09:01:09;5.67;;;4.33;;
46318;SDS011;32042;50.916;2.926;2022-12-19T09:03:37;4.27;;;3.87;;
46318;SDS011;32042;50.916;2.926;2022-12-19T09:06:04;4.30;;;3.90;;
46318;SDS011;32042;50.916;2.926;2022-12-19T09:08:31;4.27;;;3.87;;
46318;SDS011;32042;50.916;2.926;2022-12-19T09:11:01;6.43;;;5.07;;
46318;SDS011;32042;50.916;2.926;2022-12-19T09:13:28;5.03;;;4.37;;
46318;SDS011;32042;50.916;2.926;2022-12-19T09:16:01;6.73;;;4.60;;
46318;SDS011;32042;50.916;2.926;2022-12-19T09:18:28;5.60;;;4.70;;
46318;SDS011;32042;50.916;2.926;2022-12-19T09:20:55;6.03;;;4.93;;
46318;SDS011;32042;50.916;2.926;2022-12-19T09:23:22;4.73;;;4.27;;
46318;SDS011;32042;50.916;2.926;2022-12-19T09:25:48;4.57;;;4.17;;
46318;SDS011;32042;50.916;2.926;2022-12-19T09:28:14;5.03;;;4.53;;
46318;SDS011;32042;50.916;2.926;2022-12-19T09:30:40;8.47;;;4.63;;
46318;SDS011;32042;50.916;2.926;2022-12-19T09:33:06;5.67;;;4.27;;
46318;SDS011;32042;50.916;2.926;2022-12-19T09:35:32;5.80;;;4.73;;
46318;SDS011;32042;50.916;2.926;2022-12-19T09:37:58;5.43;;;4.27;;
46318;SDS011;32042;50.916;2.926;2022-12-19T09:40:24;6.70;;;4.43;;
46318;SDS011;32042;50.916;2.926;2022-12-19T09:47:49;7.67;;;4.80;;
46318;SDS011;32042;50.916;2.926;2022-12-19T09:50:32;4.47;;;4.07;;
46318;SDS011;32042;50.916;2.926;2022-12-19T09:53:02;4.33;;;3.93;;
46318;SDS011;32042;50.916;2.926;2022-12-19T09:55:32;5.73;;;5.17;;
46318;SDS011;32042;50.916;2.926;2022-12-19T10:00:33;6.03;;;4.50;;
46318;SDS011;32042;50.916;2.926;2022-12-19T10:03:13;6.97;;;4.70;;
46318;SDS011;32042;50.916;2.926;2022-12-19T10:05:44;5.27;;;4.77;;
46318;SDS011;32042;50.916;2.926;2022-12-19T10:08:33;5.60;;;4.73;;
46318;SDS011;32042;50.916;2.926;2022-12-19T10:16:14;8.37;;;6.37;;
46318;SDS011;32042;50.916;2.926;2022-12-19T10:18:58;6.03;;;5.37;;
46318;SDS011;32042;50.916;2.926;2022-12-19T10:24:03;6.17;;;5.57;;
46318;SDS011;32042;50.916;2.926;2022-12-19T10:26:41;7.03;;;5.00;;
46318;SDS011;32042;50.916;2.926;2022-12-19T10:34:33;5.87;;;5.37;;
46318;SDS011;32042;50.916;2.926;2022-12-19T10:37:01;5.33;;;4.83;;
46318;SDS011;32042;50.916;2.926;2022-12-19T10:39:58;6.93;;;5.80;;
46318;SDS011;32042;50.916;2.926;2022-12-19T10:45:17;6.50;;;5.80;;
46318;SDS011;32042;50.916;2.926;2022-12-19T10:47:45;8.13;;;5.83;;
46318;SDS011;32042;50.916;2.926;2022-12-19T10:50:20;6.83;;;5.07;;
46318;SDS011;32042;50.916;2.926;2022-12-19T10:58:10;5.97;;;4.80;;
46318;SDS011;32042;50.916;2.926;2022-12-19T11:00:37;6.23;;;4.87;;
46318;SDS011;32042;50.916;2.926;2022-12-19T11:03:14;5.60;;;5.03;;
46318;SDS011;32042;50.916;2.926;2022-12-19T11:05:42;8.40;;;4.10;;
46318;SDS011;32042;50.916;2.926;2022-12-19T11:08:16;4.87;;;4.20;;
46318;SDS011;32042;50.916;2.926;2022-12-19T11:10:47;5.63;;;4.70;;
46318;SDS011;32042;50.916;2.926;2022-12-19T11:13:20;6.73;;;4.80;;
46318;SDS011;32042;50.916;2.926;2022-12-19T11:15:48;6.20;;;4.67;;
46318;SDS011;32042;50.916;2.926;2022-12-19T11:18:14;5.70;;;4.63;;
46318;SDS011;32042;50.916;2.926;2022-12-19T11:20:49;4.47;;;4.07;;
46318;SDS011;32042;50.916;2.926;2022-12-19T11:23:18;7.27;;;6.13;;
46318;SDS011;32042;50.916;2.926;2022-12-19T11:25:44;17.97;;;11.13;;
46318;SDS011;32042;50.916;2.926;2022-12-19T11:28:24;28.87;;;13.97;;
46318;SDS011;32042;50.916;2.926;2022-12-19T11:33:27;6.80;;;5.33;;
46318;SDS011;32042;50.916;2.926;2022-12-19T11:35:55;10.87;;;7.10;;
46318;SDS011;32042;50.916;2.926;2022-12-19T11:38:44;6.73;;;6.20;;
46318;SDS011;32042;50.916;2.926;2022-12-19T11:41:16;10.10;;;5.17;;
46318;SDS011;32042;50.916;2.926;2022-12-19T11:48:40;10.07;;;7.97;;
46318;SDS011;32042;50.916;2.926;2022-12-19T11:53:42;4.83;;;4.43;;
46318;SDS011;32042;50.916;2.926;2022-12-19T11:56:16;7.63;;;5.07;;
46318;SDS011;32042;50.916;2.926;2022-12-19T11:58:48;5.50;;;5.00;;
46318;SDS011;32042;50.916;2.926;2022-12-19T12:06:16;4.17;;;3.83;;
46318;SDS011;32042;50.916;2.926;2022-12-19T12:14:29;4.67;;;4.23;;
46318;SDS011;32042;50.916;2.926;2022-12-19T12:16:30;4.63;;;4.10;;
46318;SDS011;32042;50.916;2.926;2022-12-19T12:21:33;6.47;;;3.90;;
46318;SDS011;32042;50.916;2.926;2022-12-19T12:26:32;4.60;;;4.20;;
46318;SDS011;32042;50.916;2.926;2022-12-19T12:36:34;5.10;;;4.20;;
46318;SDS011;32042;50.916;2.926;2022-12-19T12:44:36;6.50;;;4.70;;
46318;SDS011;32042;50.916;2.926;2022-12-19T12:49:42;5.37;;;4.23;;
46318;SDS011;32042;50.916;2.926;2022-12-19T12:52:14;6.87;;;5.17;;
46318;SDS011;32042;50.916;2.926;2022-12-19T12:54:41;6.43;;;5.40;;
46318;SDS011;32042;50.916;2.926;2022-12-19T12:57:19;4.67;;;4.27;;
46318;SDS011;32042;50.916;2.926;2022-12-19T12:59:46;4.13;;;3.80;;
46318;SDS011;32042;50.916;2.926;2022-12-19T13:02:14;6.50;;;4.37;;
46318;SDS011;32042;50.916;2.926;2022-12-19T13:04:42;4.80;;;4.40;;
46318;SDS011;32042;50.916;2.926;2022-12-19T13:07:24;4.70;;;4.27;;
46318;SDS011;32042;50.916;2.926;2022-12-19T13:10:05;6.50;;;3.73;;
46318;SDS011;32042;50.916;2.926;2022-12-19T13:12:32;5.17;;;4.60;;
46318;SDS011;32042;50.916;2.926;2022-12-19T13:22:44;5.27;;;4.47;;
46318;SDS011;32042;50.916;2.926;2022-12-19T13:30:27;5.60;;;4.97;;
46318;SDS011;32042;50.916;2.926;2022-12-19T13:37:50;11.13;;;6.37;;
46318;SDS011;32042;50.916;2.926;2022-12-19T13:40:33;7.63;;;4.97;;
46318;SDS011;32042;50.916;2.926;2022-12-19T13:43:16;8.90;;;5.23;;
46318;SDS011;32042;50.916;2.926;2022-12-19T13:46:02;9.30;;;8.30;;
46318;SDS011;32042;50.916;2.926;2022-12-19T13:48:34;13.13;;;8.97;;
46318;SDS011;32042;50.916;2.926;2022-12-19T13:51:06;12.47;;;6.37;;
46318;SDS011;32042;50.916;2.926;2022-12-19T13:53:33;10.83;;;7.70;;
46318;SDS011;32042;50.916;2.926;2022-12-19T13:56:00;11.83;;;9.00;;
46318;SDS011;32042;50.916;2.926;2022-12-19T13:58:28;10.10;;;6.87;;
46318;SDS011;32042;50.916;2.926;2022-12-19T14:00:55;10.00;;;8.07;;
46318;SDS011;32042;50.916;2.926;2022-12-19T14:03:33;28.30;;;15.13;;
46318;SDS011;32042;50.916;2.926;2022-12-19T14:06:02;37.73;;;21.07;;
46318;SDS011;32042;50.916;2.926;2022-12-19T14:08:29;20.47;;;13.47;;
46318;SDS011;32042;50.916;2.926;2022-12-19T14:10:55;6.03;;;4.17;;
46318;SDS011;32042;50.916;2.926;2022-12-19T14:13:22;4.83;;;4.33;;
46318;SDS011;32042;50.916;2.926;2022-12-19T14:16:12;4.40;;;4.00;;
46318;SDS011;32042;50.916;2.926;2022-12-19T14:18:39;4.77;;;3.90;;
46318;SDS011;32042;50.916;2.926;2022-12-19T14:21:12;6.30;;;4.60;;
46318;SDS011;32042;50.916;2.926;2022-12-19T14:23:39;5.90;;;4.97;;
46318;SDS011;32042;50.916;2.926;2022-12-19T14:26:38;7.33;;;4.83;;
46318;SDS011;32042;50.916;2.926;2022-12-19T14:29:05;5.90;;;4.10;;
46318;SDS011;32042;50.916;2.926;2022-12-19T14:31:33;4.60;;;3.60;;
46318;SDS011;32042;50.916;2.926;2022-12-19T14:34:01;5.50;;;4.83;;
46318;SDS011;32042;50.916;2.926;2022-12-19T14:36:28;5.37;;;3.77;;
46318;SDS011;32042;50.916;2.926;2022-12-19T14:38:55;6.20;;;3.93;;
46318;SDS011;32042;50.916;2.926;2022-12-19T14:44:15;6.50;;;5.00;;
46318;SDS011;32042;50.916;2.926;2022-12-19T14:46:41;5.03;;;3.90;;
46318;SDS011;32042;50.916;2.926;2022-12-19T14:49:41;4.77;;;3.17;;
46318;SDS011;32042;50.916;2.926;2022-12-19T14:52:04;7.30;;;3.80;;
46318;SDS011;32042;50.916;2.926;2022-12-19T14:54:30;6.30;;;3.30;;
46318;SDS011;32042;50.916;2.926;2022-12-19T14:57:00;4.00;;;3.10;;
46318;SDS011;32042;50.916;2.926;2022-12-19T14:59:33;4.27;;;3.43;;
46318;SDS011;32042;50.916;2.926;2022-12-19T15:04:38;4.03;;;3.37;;
46318;SDS011;32042;50.916;2.926;2022-12-19T15:07:05;5.03;;;3.07;;
46318;SDS011;32042;50.916;2.926;2022-12-19T15:09:34;7.03;;;3.70;;
46318;SDS011;32042;50.916;2.926;2022-12-19T15:12:07;4.40;;;3.13;;
46318;SDS011;32042;50.916;2.926;2022-12-19T15:15:00;5.17;;;3.43;;
46318;SDS011;32042;50.916;2.926;2022-12-19T15:17:27;3.87;;;3.33;;
46318;SDS011;32042;50.916;2.926;2022-12-19T15:19:53;6.50;;;3.43;;
46318;SDS011;32042;50.916;2.926;2022-12-19T15:22:19;4.90;;;3.60;;
46318;SDS011;32042;50.916;2.926;2022-12-19T15:24:45;18.07;;;7.97;;
46318;SDS011;32042;50.916;2.926;2022-12-19T15:27:13;8.80;;;5.67;;
46318;SDS011;32042;50.916;2.926;2022-12-19T15:29:40;19.23;;;11.03;;
46318;SDS011;32042;50.916;2.926;2022-12-19T15:32:10;26.13;;;12.87;;
46318;SDS011;32042;50.916;2.926;2022-12-19T15:34:37;13.07;;;9.50;;
46318;SDS011;32042;50.916;2.926;2022-12-19T15:37:06;4.93;;;3.63;;
46318;SDS011;32042;50.916;2.926;2022-12-19T15:39:34;3.43;;;3.10;;
46318;SDS011;32042;50.916;2.926;2022-12-19T15:42:00;5.97;;;3.33;;
46318;SDS011;32042;50.916;2.926;2022-12-19T15:46:52;6.27;;;5.67;;
46318;SDS011;32042;50.916;2.926;2022-12-19T15:49:19;7.53;;;6.63;;
46318;SDS011;32042;50.916;2.926;2022-12-19T15:51:46;7.07;;;5.30;;
46318;SDS011;32042;50.916;2.926;2022-12-19T15:54:13;5.83;;;5.23;;
46318;SDS011;32042;50.916;2.926;2022-12-19T15:56:39;5.27;;;3.83;;
46318;SDS011;32042;50.916;2.926;2022-12-19T15:59:15;4.97;;;4.23;;
46318;SDS011;32042;50.916;2.926;2022-12-19T16:01:44;5.40;;;4.23;;
46318;SDS011;32042;50.916;2.926;2022-12-19T16:04:10;5.90;;;4.67;;
46318;SDS011;32042;50.916;2.926;2022-12-19T16:06:37;5.47;;;3.67;;
46318;SDS011;32042;50.916;2.926;2022-12-19T16:09:20;5.07;;;3.57;;
46318;SDS011;32042;50.916;2.926;2022-12-19T16:11:46;3.63;;;3.07;;
46318;SDS011;32042;50.916;2.926;2022-12-19T16:14:14;6.47;;;3.60;;
46318;SDS011;32042;50.916;2.926;2022-12-19T16:16:40;5.23;;;3.77;;
46318;SDS011;32042;50.916;2.926;2022-12-19T16:19:23;5.40;;;3.90;;
46318;SDS011;32042;50.916;2.926;2022-12-19T16:21:49;4.53;;;3.80;;
46318;SDS011;32042;50.916;2.926;2022-12-19T16:24:15;10.57;;;4.67;;
46318;SDS011;32042;50.916;2.926;2022-12-19T16:26:41;5.60;;;3.77;;
46318;SDS011;32042;50.916;2.926;2022-12-19T16:29:41;6.17;;;4.43;;
46318;SDS011;32042;50.916;2.926;2022-12-19T16:32:00;5.00;;;4.17;;
46318;SDS011;32042;50.916;2.926;2022-12-19T16:34:27;6.00;;;4.13;;
46318;SDS011;32042;50.916;2.926;2022-12-19T16:36:53;5.40;;;3.87;;
46318;SDS011;32042;50.916;2.926;2022-12-19T16:39:19;7.20;;;4.87;;
46318;SDS011;32042;50.916;2.926;2022-12-19T16:41:45;8.50;;;6.40;;
46318;SDS011;32042;50.916;2.926;2022-12-19T16:44:13;10.73;;;7.30;;
46318;SDS011;32042;50.916;2.926;2022-12-19T16:46:40;9.27;;;6.17;;
46318;SDS011;32042;50.916;2.926;2022-12-19T16:49:13;10.33;;;9.23;;
46318;SDS011;32042;50.916;2.926;2022-12-19T16:51:39;14.87;;;11.23;;
46318;SDS011;32042;50.916;2.926;2022-12-19T16:54:06;11.27;;;6.77;;
46318;SDS011;32042;50.916;2.926;2022-12-19T16:59:02;5.13;;;4.63;;
46318;SDS011;32042;50.916;2.926;2022-12-19T17:01:29;5.27;;;4.70;;
46318;SDS011;32042;50.916;2.926;2022-12-19T17:03:55;5.83;;;5.07;;
46318;SDS011;32042;50.916;2.926;2022-12-19T17:06:21;6.67;;;4.60;;
46318;SDS011;32042;50.916;2.926;2022-12-19T17:08:48;5.37;;;4.87;;